createdAt,value
2019-03-10T00:02:02.780Z,9.65
2019-03-10T00:04:23.565Z,8.93
2019-03-10T00:06:44.317Z,9.88
2019-03-10T00:09:06.034Z,9.38
2019-03-10T00:11:28.177Z,9.40
2019-03-10T00:13:48.841Z,8.35
2019-03-10T00:16:09.577Z,8.45
2019-03-10T00:18:30.166Z,9.48
2019-03-10T00:20:51.043Z,9.40
2019-03-10T00:23:11.770Z,9.18
2019-03-10T00:25:32.380Z,8.40
2019-03-10T00:27:53.290Z,8.50
2019-03-10T00:30:16.254Z,9.65
2019-03-10T00:32:37.942Z,9.35
2019-03-10T00:34:59.149Z,9.68
2019-03-10T00:37:19.848Z,9.35
2019-03-10T00:39:43.427Z,8.40
2019-03-10T00:42:07.932Z,9.28
2019-03-10T00:44:49.191Z,10.03
2019-03-10T00:47:31.153Z,8.40
2019-03-10T00:50:40.829Z,8.85
2019-03-10T00:53:01.837Z,8.48
2019-03-10T00:55:22.463Z,9.85
2019-03-10T00:57:43.552Z,9.45
2019-03-10T01:00:07.194Z,8.73
2019-03-10T01:02:31.735Z,8.13
2019-03-10T01:04:56.535Z,8.48
2019-03-10T01:07:17.061Z,8.35
2019-03-10T01:09:37.732Z,8.50
2019-03-10T01:11:58.442Z,9.15
2019-03-10T01:14:19.135Z,8.58
2019-03-10T01:16:42.054Z,8.48
2019-03-10T01:19:02.971Z,8.23
2019-03-10T01:21:23.791Z,8.25
2019-03-10T01:23:44.260Z,8.10
2019-03-10T01:26:04.891Z,8.60
2019-03-10T01:28:25.553Z,7.62
2019-03-10T01:30:49.199Z,7.78
2019-03-10T01:33:21.569Z,7.60
2019-03-10T01:35:42.694Z,7.55
2019-03-10T01:38:03.288Z,8.00
2019-03-10T01:40:23.918Z,7.58
2019-03-10T01:42:44.649Z,7.60
2019-03-10T01:45:07.975Z,7.45
2019-03-10T01:47:28.581Z,7.45
2019-03-10T01:49:49.420Z,7.92
2019-03-10T01:52:09.940Z,7.83
2019-03-10T01:54:30.533Z,7.00
2019-03-10T01:56:51.083Z,7.28
2019-03-10T01:59:13.184Z,6.83
2019-03-10T02:01:33.807Z,7.53
2019-03-10T02:03:54.413Z,7.65
2019-03-10T02:06:15.002Z,6.60
2019-03-10T02:08:35.625Z,6.85
2019-03-10T02:10:56.214Z,7.05
2019-03-10T02:13:16.897Z,6.90
2019-03-10T02:15:37.716Z,7.75
2019-03-10T02:17:58.394Z,7.65
2019-03-10T02:20:19.069Z,7.20
2019-03-10T02:22:39.641Z,7.08
2019-03-10T02:25:00.524Z,7.25
2019-03-10T02:27:21.051Z,6.60
2019-03-10T02:29:41.571Z,7.03
2019-03-10T02:32:04.905Z,6.67
2019-03-10T02:34:25.624Z,6.75
2019-03-10T02:36:46.266Z,6.55
2019-03-10T02:39:08.952Z,6.62
2019-03-10T02:41:30.588Z,7.20
2019-03-10T02:43:52.063Z,6.28
2019-03-10T02:46:12.853Z,6.58
2019-03-10T02:48:33.328Z,5.90
2019-03-10T02:50:53.931Z,6.87
2019-03-10T02:53:14.526Z,6.90
2019-03-10T02:55:35.127Z,6.42
2019-03-10T02:57:55.757Z,6.20
2019-03-10T03:00:16.424Z,6.28
2019-03-10T03:02:37.206Z,6.22
2019-03-10T03:04:57.854Z,6.85
2019-03-10T03:07:18.435Z,6.60
2019-03-10T03:09:38.991Z,6.67
2019-03-10T03:11:59.465Z,7.30
2019-03-10T03:14:24.179Z,4.43
2019-03-10T03:16:44.801Z,6.37
2019-03-10T03:19:05.639Z,6.50
2019-03-10T03:21:26.221Z,7.03
2019-03-10T03:23:46.897Z,6.60
2019-03-10T03:26:07.546Z,5.62
2019-03-10T03:28:28.078Z,6.85
2019-03-10T03:30:48.672Z,5.92
2019-03-10T03:33:09.313Z,6.17
2019-03-10T03:35:50.329Z,6.55
2019-03-10T03:38:10.975Z,6.62
2019-03-10T03:40:32.439Z,6.97
2019-03-10T03:42:53.016Z,6.47
2019-03-10T03:45:13.681Z,6.75
2019-03-10T03:47:34.293Z,6.97
2019-03-10T03:49:54.913Z,7.05
2019-03-10T03:52:15.730Z,7.50
2019-03-10T03:54:36.360Z,6.60
2019-03-10T03:56:57.107Z,7.60
2019-03-10T03:59:17.790Z,7.45
2019-03-10T04:01:42.726Z,7.12
2019-03-10T04:04:03.318Z,7.87
2019-03-10T04:06:23.932Z,7.35
2019-03-10T04:08:44.792Z,6.60
2019-03-10T04:11:05.597Z,7.15
2019-03-10T04:13:26.179Z,6.72
2019-03-10T04:15:46.838Z,7.45
2019-03-10T04:18:07.355Z,6.83
2019-03-10T04:20:35.773Z,6.87
2019-03-10T04:22:56.402Z,6.67
2019-03-10T04:25:17.357Z,6.60
2019-03-10T04:27:37.979Z,6.10
2019-03-10T04:29:58.548Z,6.55
2019-03-10T04:32:19.298Z,6.75
2019-03-10T04:34:40.075Z,7.33
2019-03-10T04:37:00.637Z,7.60
2019-03-10T04:39:21.215Z,7.50
2019-03-10T04:41:41.831Z,7.50
2019-03-10T04:44:02.553Z,7.28
2019-03-10T04:46:23.177Z,7.37
2019-03-10T04:48:43.747Z,7.22
2019-03-10T04:51:04.435Z,7.62
2019-03-10T04:53:25.287Z,7.25
2019-03-10T04:55:50.992Z,8.08
2019-03-10T04:58:13.179Z,7.70
2019-03-10T05:00:34.916Z,7.90
2019-03-10T05:02:55.540Z,7.62
2019-03-10T05:05:16.232Z,7.65
2019-03-10T05:07:36.671Z,6.55
2019-03-10T05:09:57.472Z,7.67
2019-03-10T05:12:18.073Z,7.08
2019-03-10T05:14:38.558Z,8.03
2019-03-10T05:16:59.362Z,7.35
2019-03-10T05:19:21.699Z,7.47
2019-03-10T05:21:41.989Z,7.53
2019-03-10T05:24:05.009Z,7.30
2019-03-10T05:28:44.894Z,8.28
2019-03-10T05:31:05.505Z,7.20
2019-03-10T05:33:26.126Z,6.78
2019-03-10T05:35:46.717Z,6.95
2019-03-10T05:38:07.380Z,6.42
2019-03-10T05:40:27.962Z,6.70
2019-03-10T05:42:48.639Z,7.17
2019-03-10T05:45:09.496Z,7.05
2019-03-10T05:47:29.949Z,6.45
2019-03-10T05:49:50.436Z,8.55
2019-03-10T05:52:10.895Z,7.47
2019-03-10T05:54:31.590Z,7.85
2019-03-10T05:56:52.178Z,6.35
2019-03-10T05:59:12.758Z,6.83
2019-03-10T06:01:33.432Z,7.33
2019-03-10T06:03:54.021Z,7.40
2019-03-10T06:06:14.733Z,7.65
2019-03-10T06:08:37.305Z,7.00
2019-03-10T06:10:58.626Z,6.07
2019-03-10T06:13:18.587Z,6.13
2019-03-10T06:15:39.451Z,7.75
2019-03-10T06:18:00.057Z,7.95
2019-03-10T06:20:20.578Z,6.50
2019-03-10T06:22:41.247Z,6.40
2019-03-10T06:25:01.825Z,6.20
2019-03-10T06:27:22.340Z,6.25
2019-03-10T06:29:42.887Z,6.65
2019-03-10T06:32:04.582Z,6.80
2019-03-10T06:34:25.241Z,7.40
2019-03-10T06:36:48.622Z,6.70
2019-03-10T06:39:09.331Z,7.53
2019-03-10T06:41:31.339Z,7.22
2019-03-10T06:43:51.966Z,7.45
2019-03-10T06:46:12.687Z,7.25
2019-03-10T06:48:33.288Z,7.00
2019-03-10T06:50:53.944Z,7.33
2019-03-10T06:53:17.357Z,7.00
2019-03-10T06:55:44.193Z,7.00
2019-03-10T06:58:24.065Z,6.80
2019-03-10T07:00:44.889Z,6.85
2019-03-10T07:03:05.520Z,6.35
2019-03-10T07:05:26.283Z,6.85
2019-03-10T07:07:47.074Z,7.25
2019-03-10T07:10:10.330Z,6.92
2019-03-10T07:14:49.761Z,6.10
2019-03-10T07:17:10.381Z,5.95
2019-03-10T07:19:30.328Z,5.70
2019-03-10T07:21:50.232Z,5.37
2019-03-10T07:24:10.580Z,5.40
2019-03-10T07:26:32.476Z,4.97
2019-03-10T07:28:54.377Z,4.90
2019-03-10T07:31:22.382Z,5.23
2019-03-10T07:33:47.065Z,5.13
2019-03-10T07:36:14.710Z,5.13
2019-03-10T07:38:36.964Z,4.93
2019-03-10T07:40:58.998Z,5.43
2019-03-10T07:43:24.019Z,5.80
2019-03-10T07:45:54.681Z,5.40
2019-03-10T07:48:25.787Z,6.10
2019-03-10T07:50:47.706Z,6.03
2019-03-10T07:53:18.643Z,6.40
2019-03-10T07:55:40.593Z,5.93
2019-03-10T07:58:17.561Z,6.10
2019-03-10T08:00:51.786Z,5.57
2019-03-10T08:03:13.787Z,6.10
2019-03-10T08:05:35.666Z,5.77
2019-03-10T08:08:00.321Z,6.00
2019-03-10T08:10:39.657Z,6.97
2019-03-10T08:13:01.464Z,6.20
2019-03-10T08:15:24.450Z,6.47
2019-03-10T08:18:02.982Z,6.40
2019-03-10T08:20:50.804Z,5.93
2019-03-10T08:23:12.826Z,6.90
2019-03-10T08:25:49.801Z,6.10
2019-03-10T08:28:17.581Z,6.90
2019-03-10T08:30:54.336Z,7.23
2019-03-10T08:33:22.420Z,7.23
2019-03-10T08:36:00.863Z,6.50
2019-03-10T08:38:22.769Z,7.30
2019-03-10T08:40:47.610Z,6.67
2019-03-10T08:43:21.708Z,6.80
2019-03-10T08:45:59.138Z,6.85
2019-03-10T08:48:30.529Z,7.25
2019-03-10T08:50:58.281Z,6.22
2019-03-10T08:53:20.034Z,6.22
2019-03-10T08:55:57.938Z,6.50
2019-03-10T08:58:25.493Z,6.20
2019-03-10T09:01:05.409Z,6.77
2019-03-10T09:03:30.519Z,6.03
2019-03-10T09:05:53.491Z,5.13
2019-03-10T09:08:34.678Z,5.60
2019-03-10T09:10:59.263Z,5.80
2019-03-10T09:13:29.644Z,5.00
2019-03-10T09:16:07.819Z,5.40
2019-03-10T09:18:32.592Z,5.37
2019-03-10T09:20:55.117Z,4.87
2019-03-10T09:23:18.183Z,4.00
2019-03-10T09:25:43.209Z,3.90
2019-03-10T09:28:04.804Z,4.37
2019-03-10T09:30:26.781Z,4.87
2019-03-10T09:32:48.654Z,4.90
2019-03-10T09:35:16.598Z,5.00
2019-03-10T09:37:38.598Z,5.70
2019-03-10T09:40:03.659Z,5.37
2019-03-10T09:42:41.743Z,6.07
2019-03-10T09:48:11.774Z,6.10
2019-03-10T09:50:39.218Z,6.07
2019-03-10T09:53:08.502Z,6.17
2019-03-10T09:55:46.940Z,5.53
2019-03-10T09:58:11.623Z,5.80
2019-03-10T10:00:39.782Z,5.73
2019-03-10T10:03:04.401Z,5.87
2019-03-10T10:05:32.032Z,5.63
2019-03-10T10:08:11.062Z,5.70
2019-03-10T10:10:33.958Z,5.53
2019-03-10T10:13:04.765Z,4.83
2019-03-10T10:15:32.576Z,6.28
2019-03-10T10:18:00.568Z,5.47
2019-03-10T10:20:31.823Z,6.20
2019-03-10T10:22:55.941Z,5.90
2019-03-10T10:25:33.881Z,6.17
2019-03-10T10:28:00.965Z,6.80
2019-03-10T10:30:39.401Z,5.97
2019-03-10T10:33:05.367Z,6.23
2019-03-10T10:35:45.487Z,5.30
2019-03-10T10:38:23.388Z,5.83
2019-03-10T10:40:52.132Z,5.77
2019-03-10T10:43:14.381Z,5.63
2019-03-10T10:45:36.336Z,6.13
2019-03-10T10:48:01.589Z,6.10
2019-03-10T10:50:26.452Z,5.50
2019-03-10T10:53:05.205Z,5.30
2019-03-10T10:55:30.603Z,5.70
2019-03-10T10:57:53.790Z,5.28
2019-03-10T11:00:20.116Z,5.10
2019-03-10T11:02:57.767Z,5.05
2019-03-10T11:05:19.545Z,4.72
2019-03-10T11:07:41.345Z,4.80
2019-03-10T11:10:21.173Z,4.90
2019-03-10T11:12:52.152Z,5.50
2019-03-10T11:15:16.984Z,5.00
2019-03-10T11:17:38.873Z,5.00
2019-03-10T11:20:00.773Z,4.60
2019-03-10T11:22:24.513Z,5.20
2019-03-10T11:24:52.163Z,4.60
2019-03-10T11:27:22.998Z,4.37
2019-03-10T11:30:00.614Z,5.17
2019-03-10T11:32:22.879Z,4.43
2019-03-10T11:34:50.502Z,4.70
2019-03-10T11:37:30.696Z,4.23
2019-03-10T11:40:05.280Z,5.17
2019-03-10T11:42:33.029Z,4.03
2019-03-10T11:44:55.042Z,4.67
2019-03-10T11:47:17.350Z,5.00
2019-03-10T11:49:53.129Z,4.47
2019-03-10T11:52:20.575Z,4.12
2019-03-10T11:54:51.343Z,4.13
2019-03-10T11:57:25.440Z,3.90
2019-03-10T11:59:53.410Z,4.23
2019-03-10T12:02:16.763Z,4.20
2019-03-10T12:04:58.823Z,3.90
2019-03-10T12:07:29.611Z,3.98
2019-03-10T12:09:49.657Z,3.77
2019-03-10T12:12:09.763Z,3.65
2019-03-10T12:14:29.926Z,3.98
2019-03-10T12:16:50.065Z,3.87
2019-03-10T12:19:09.946Z,3.80
2019-03-10T12:21:30.274Z,4.00
2019-03-10T12:23:50.597Z,4.00
2019-03-10T12:26:10.751Z,3.90
2019-03-10T12:28:31.262Z,4.00
2019-03-10T12:30:51.487Z,4.03
2019-03-10T12:33:11.993Z,3.50
2019-03-10T12:35:34.748Z,4.00
2019-03-10T12:37:54.766Z,3.60
2019-03-10T12:40:19.653Z,4.33
2019-03-10T12:42:40.258Z,3.30
2019-03-10T12:47:32.498Z,3.40
2019-03-10T12:49:52.891Z,3.40
2019-03-10T12:52:13.170Z,3.27
2019-03-10T12:54:33.508Z,3.00
2019-03-10T12:56:53.742Z,3.00
2019-03-10T12:59:14.139Z,3.10
2019-03-10T13:01:36.564Z,3.80
2019-03-10T13:03:59.073Z,3.08
2019-03-10T13:06:18.895Z,3.07
2019-03-10T13:08:39.391Z,3.00
2019-03-10T13:10:59.672Z,3.27
2019-03-10T13:13:19.916Z,3.30
2019-03-10T13:15:40.166Z,2.90
2019-03-10T13:18:01.513Z,3.33
2019-03-10T13:20:28.405Z,3.03
2019-03-10T13:22:47.022Z,3.30
2019-03-10T13:25:10.404Z,2.93
2019-03-10T13:27:30.599Z,3.40
2019-03-10T13:29:50.854Z,2.83
2019-03-10T13:32:11.096Z,3.00
2019-03-10T13:34:31.333Z,3.17
2019-03-10T13:36:51.721Z,3.23
2019-03-10T13:39:11.994Z,3.53
2019-03-10T13:41:33.976Z,3.30
2019-03-10T13:43:54.229Z,2.87
2019-03-10T13:46:14.517Z,3.37
2019-03-10T13:48:34.766Z,3.23
2019-03-10T13:50:55.044Z,3.30
2019-03-10T13:53:14.993Z,3.02
2019-03-10T13:55:35.023Z,2.98
2019-03-10T13:57:55.148Z,2.77
2019-03-10T14:00:26.797Z,2.70
2019-03-10T14:02:47.243Z,3.10
2019-03-10T14:05:08.656Z,2.80
2019-03-10T14:07:28.878Z,3.30
2019-03-10T14:09:49.386Z,2.93
2019-03-10T14:12:09.673Z,2.97
2019-03-10T14:14:29.921Z,2.97
2019-03-10T14:16:50.294Z,3.27
2019-03-10T14:19:10.677Z,3.20
2019-03-10T14:21:32.426Z,3.27
2019-03-10T14:23:53.005Z,3.07
2019-03-10T14:26:13.405Z,2.73
2019-03-10T14:28:33.714Z,2.63
2019-03-10T14:30:54.164Z,2.80
2019-03-10T14:33:14.379Z,2.80
2019-03-10T14:35:36.187Z,2.90
2019-03-10T14:37:56.669Z,2.70
2019-03-10T14:40:21.201Z,3.10
2019-03-10T14:42:41.672Z,2.47
2019-03-10T14:45:01.919Z,2.63
2019-03-10T14:47:22.531Z,2.80
2019-03-10T14:49:42.844Z,2.93
2019-03-10T14:52:03.137Z,2.60
2019-03-10T14:54:23.461Z,3.00
2019-03-10T14:56:45.238Z,3.07
2019-03-10T14:59:05.591Z,2.70
2019-03-10T15:01:26.945Z,2.80
2019-03-10T15:03:49.789Z,2.57
2019-03-10T15:06:10.110Z,2.90
2019-03-10T15:08:30.018Z,3.05
2019-03-10T15:10:51.586Z,3.00
2019-03-10T15:13:11.709Z,2.50
2019-03-10T15:15:31.923Z,2.87
2019-03-10T15:17:52.186Z,3.27
2019-03-10T15:20:14.372Z,2.70
2019-03-10T15:22:34.956Z,3.08
2019-03-10T15:24:56.614Z,2.70
2019-03-10T15:27:23.347Z,3.33
2019-03-10T15:29:38.908Z,2.80
2019-03-10T15:32:00.070Z,3.23
2019-03-10T15:34:21.714Z,3.43
2019-03-10T15:36:43.801Z,3.20
2019-03-10T15:39:05.868Z,2.70
2019-03-10T15:43:46.126Z,2.90
2019-03-10T15:46:06.416Z,2.97
2019-03-10T15:48:26.627Z,3.10
2019-03-10T15:50:46.936Z,3.10
2019-03-10T15:53:07.349Z,2.83
2019-03-10T15:55:27.622Z,2.50
2019-03-10T15:57:50.470Z,2.90
2019-03-10T16:00:12.877Z,2.80
2019-03-10T16:02:32.964Z,2.65
2019-03-10T16:04:53.128Z,2.70
2019-03-10T16:07:16.243Z,2.80
2019-03-10T16:09:38.984Z,2.52
2019-03-10T16:11:59.237Z,3.15
2019-03-10T16:14:19.382Z,2.90
2019-03-10T16:16:39.382Z,2.60
2019-03-10T16:18:59.359Z,2.52
2019-03-10T16:21:19.347Z,3.37
2019-03-10T16:23:39.380Z,2.67
2019-03-10T16:25:59.364Z,2.62
2019-03-10T16:28:19.679Z,3.10
2019-03-10T16:30:39.978Z,3.23
2019-03-10T16:33:01.262Z,3.00
2019-03-10T16:35:22.479Z,3.03
2019-03-10T16:37:43.383Z,3.00
2019-03-10T16:40:05.595Z,3.30
2019-03-10T16:42:25.962Z,2.72
2019-03-10T16:44:46.050Z,3.72
2019-03-10T16:47:09.115Z,2.83
2019-03-10T16:51:48.464Z,3.08
2019-03-10T16:54:08.684Z,3.10
2019-03-10T16:56:32.072Z,3.13
2019-03-10T16:58:52.594Z,2.70
2019-03-10T17:01:12.834Z,3.00
2019-03-10T17:03:33.432Z,3.10
2019-03-10T17:05:54.083Z,3.20
2019-03-10T17:08:15.870Z,3.17
2019-03-10T17:10:35.831Z,2.90
2019-03-10T17:12:56.515Z,3.37
2019-03-10T17:15:21.525Z,3.25
2019-03-10T17:17:42.407Z,2.92
2019-03-10T17:20:02.511Z,2.65
2019-03-10T17:22:25.154Z,3.20
2019-03-10T17:24:48.501Z,3.22
2019-03-10T17:27:08.413Z,3.17
2019-03-10T17:29:28.466Z,2.87
2019-03-10T17:31:49.200Z,3.25
2019-03-10T17:34:09.417Z,2.90
2019-03-10T17:36:29.390Z,3.37
2019-03-10T17:38:50.522Z,3.02
2019-03-10T17:41:10.586Z,3.15
2019-03-10T17:43:30.543Z,3.27
2019-03-10T17:45:50.521Z,3.00
2019-03-10T17:48:13.003Z,3.50
2019-03-10T17:50:32.664Z,3.87
2019-03-10T17:52:53.101Z,3.33
2019-03-10T17:55:17.779Z,3.33
2019-03-10T17:57:39.854Z,3.40
2019-03-10T18:00:00.404Z,3.12
2019-03-10T18:02:20.931Z,3.42
2019-03-10T18:04:40.960Z,4.12
2019-03-10T18:07:01.522Z,3.50
2019-03-10T18:09:23.040Z,3.87
2019-03-10T18:11:43.748Z,4.35
2019-03-10T18:14:03.744Z,4.40
2019-03-10T18:16:24.843Z,4.17
2019-03-10T18:18:46.482Z,5.03
2019-03-10T18:21:06.458Z,4.78
2019-03-10T18:23:31.137Z,5.00
2019-03-10T18:25:51.279Z,5.28
2019-03-10T18:28:11.399Z,4.70
2019-03-10T18:30:31.933Z,5.03
2019-03-10T18:32:52.486Z,4.67
2019-03-10T18:35:12.703Z,4.45
2019-03-10T18:37:34.242Z,3.90
2019-03-10T18:39:54.268Z,5.85
2019-03-10T18:42:16.650Z,3.77
2019-03-10T18:44:37.819Z,4.00
2019-03-10T18:46:58.428Z,3.92
2019-03-10T18:49:19.114Z,4.42
2019-03-10T18:51:41.134Z,4.25
2019-03-10T18:54:03.400Z,4.00
2019-03-10T18:56:23.861Z,4.30
2019-03-10T18:58:44.579Z,4.22
2019-03-10T19:01:06.681Z,4.60
2019-03-10T19:03:26.632Z,5.97
2019-03-10T19:05:49.176Z,4.12
2019-03-10T19:08:09.353Z,3.20
2019-03-10T19:10:30.036Z,4.42
2019-03-10T19:12:52.130Z,4.72
2019-03-10T19:15:16.259Z,4.53
2019-03-10T19:17:36.814Z,4.80
2019-03-10T19:19:57.440Z,4.67
2019-03-10T19:22:18.180Z,4.42
2019-03-10T19:24:39.238Z,5.22
2019-03-10T19:26:59.855Z,4.37
2019-03-10T19:29:20.335Z,4.20
2019-03-10T19:31:40.934Z,5.40
2019-03-10T19:34:01.509Z,4.58
2019-03-10T19:36:22.088Z,5.37
2019-03-10T19:38:42.555Z,4.90
2019-03-10T19:41:03.198Z,3.98
2019-03-10T19:43:24.785Z,4.85
2019-03-10T19:45:46.436Z,3.47
2019-03-10T19:48:07.181Z,4.10
2019-03-10T19:50:28.760Z,4.78
2019-03-10T19:52:49.856Z,4.33
2019-03-10T19:55:12.990Z,3.90
2019-03-10T19:57:33.117Z,4.33
2019-03-10T19:59:53.758Z,4.58
2019-03-10T20:02:14.462Z,4.17
2019-03-10T20:04:34.343Z,4.70
2019-03-10T20:06:54.921Z,4.75
2019-03-10T20:09:15.567Z,4.60
2019-03-10T20:11:36.143Z,4.12
2019-03-10T20:13:56.758Z,4.08
2019-03-10T20:16:17.332Z,4.22
2019-03-10T20:18:38.030Z,5.53
2019-03-10T20:20:58.705Z,5.30
2019-03-10T20:23:19.501Z,5.65
2019-03-10T20:25:41.170Z,5.30
2019-03-10T20:28:01.804Z,5.03
2019-03-10T20:30:26.569Z,5.17
2019-03-10T20:32:47.367Z,5.12
2019-03-10T20:35:13.006Z,5.58
2019-03-10T20:37:33.520Z,5.67
2019-03-10T20:39:56.021Z,6.17
2019-03-10T20:42:16.765Z,6.25
2019-03-10T20:44:37.672Z,6.55
2019-03-10T20:46:58.357Z,6.22
2019-03-10T20:49:19.121Z,6.75
2019-03-10T20:51:41.456Z,6.80
2019-03-10T20:54:02.236Z,6.85
2019-03-10T20:56:24.118Z,6.80
2019-03-10T20:58:44.838Z,6.62
2019-03-10T21:01:05.506Z,6.65
2019-03-10T21:03:26.518Z,6.83
2019-03-10T21:05:47.077Z,6.10
2019-03-10T21:08:07.784Z,6.47
2019-03-10T21:10:28.584Z,7.67
2019-03-10T21:12:49.263Z,7.50
2019-03-10T21:15:14.733Z,6.37
2019-03-10T21:17:35.033Z,5.22
2019-03-10T21:19:56.834Z,6.12
2019-03-10T21:22:17.439Z,7.03
2019-03-10T21:24:39.560Z,6.90
2019-03-10T21:27:00.722Z,6.72
2019-03-10T21:29:21.335Z,7.33
2019-03-10T21:31:42.128Z,6.80
2019-03-10T21:34:02.760Z,7.08
2019-03-10T21:36:23.395Z,7.37
2019-03-10T21:38:44.100Z,7.40
2019-03-10T21:41:13.720Z,7.08
2019-03-10T21:43:27.663Z,5.42
2019-03-10T21:45:48.350Z,7.30
2019-03-10T21:48:08.906Z,6.60
2019-03-10T21:50:29.734Z,6.78
2019-03-10T21:52:52.142Z,7.47
2019-03-10T21:55:15.495Z,7.78
2019-03-10T21:57:36.248Z,7.08
2019-03-10T21:59:56.977Z,7.30
2019-03-10T22:02:17.513Z,7.60
2019-03-10T22:04:38.213Z,8.58
2019-03-10T22:06:58.825Z,7.55
2019-03-10T22:09:19.404Z,7.40
2019-03-10T22:11:41.747Z,8.45
2019-03-10T22:14:02.323Z,7.10
2019-03-10T22:16:23.816Z,7.17
2019-03-10T22:18:45.522Z,7.15
2019-03-10T22:21:06.118Z,7.47
2019-03-10T22:23:27.893Z,7.10
2019-03-10T22:25:49.552Z,7.00
2019-03-10T22:28:10.144Z,6.75
2019-03-10T22:30:30.804Z,6.22
2019-03-10T22:32:51.470Z,5.70
2019-03-10T22:35:12.111Z,6.80
2019-03-10T22:37:32.671Z,6.42
2019-03-10T22:39:53.294Z,7.45
2019-03-10T22:42:14.001Z,7.67
2019-03-10T22:44:35.009Z,7.45
2019-03-10T22:46:55.785Z,6.53
2019-03-10T22:49:16.345Z,7.40
2019-03-10T22:51:36.908Z,6.83
2019-03-10T22:53:58.528Z,7.17
2019-03-10T22:56:19.053Z,4.95
2019-03-10T22:58:39.516Z,3.40
2019-03-10T23:01:01.817Z,1.42
2019-03-10T23:03:22.884Z,1.20
2019-03-10T23:05:43.552Z,0.90
2019-03-10T23:08:04.116Z,0.57
2019-03-10T23:10:24.614Z,0.70
2019-03-10T23:12:45.143Z,0.57
2019-03-10T23:15:09.608Z,0.47
2019-03-10T23:17:30.041Z,0.70
2019-03-10T23:19:51.569Z,0.40
2019-03-10T23:22:12.088Z,0.70
2019-03-10T23:24:32.523Z,0.50
2019-03-10T23:26:53.063Z,0.70
2019-03-10T23:29:13.607Z,0.80
2019-03-10T23:31:35.677Z,0.75
2019-03-10T23:33:56.145Z,0.65
2019-03-10T23:36:16.889Z,0.60
2019-03-10T23:38:37.473Z,0.72
2019-03-10T23:40:58.850Z,0.62
2019-03-10T23:43:19.426Z,0.80
2019-03-10T23:45:40.090Z,0.78
2019-03-10T23:48:00.726Z,0.70
2019-03-10T23:50:22.884Z,0.80
2019-03-10T23:52:43.461Z,0.70
2019-03-10T23:55:05.151Z,1.00
2019-03-10T23:57:25.739Z,0.90
2019-03-10T23:59:46.179Z,0.80
